Nearby METAR Reports

 

KRYN - Tucson/Ryan Fld, Arizona, USA
Distance from station: SSW 16mi, 26km
Updated: Thu, 22-Jun-2017 7:45pm MST
NOT Current
Clear
Clear
 Wind from NNW
Wind: NNW 12 mph , 19 km/h, Gust: 18 mph , 30 km/h
Temperature: 102°F , 39°C
Dew Point: 45°F , 7°C
Humidity: 14%
Barometer: 29.79 inHg , 1008.8 hPa
Clouds: Clear
Visibility: 10 miles , 16 km
2017/06/23 02:45 KRYN 230245Z 33010G16KT 10SM CLR 39/07 A2979 RMK LAST
KTUS - Tucson, Arizona, USA
Distance from station: SSE 18mi, 28km
Updated: Fri, 23-Jun-2017 4:53am MST
Clear
Clear
 Wind from N
Wind: N 5 mph , 7 km/h
Temperature: 84°F , 29°C
Heat Index: 84°F , 29°C
Dew Point: 59°F , 15°C
Humidity: 43%
Barometer: 29.90 inHg , 1012.5 hPa
Clouds: Clear
Visibility: 10 miles , 16 km
2017/06/23 11:53 KTUS 231153Z 35004KT 10SM CLR 29/15 A2990 RMK AO2 SLP064 T02890150 10339 20289 53002
 
KDMA - Davis/Tucson, Arizona, USA
Distance from station: SE 18mi, 29km
Updated: Fri, 23-Jun-2017 3:58am MST
Few Clouds
Few Clouds
 Wind from calm
Wind: Calm
Temperature: 86°F , 30°C
Heat Index: 85°F , 29°C
Dew Point: 59°F , 15°C
Humidity: 40%
Barometer: 29.88 inHg , 1011.9 hPa
Clouds: Few Clouds
Visibility: 10 miles , 16 km
Cloud details: Few Clouds 19000 ft
2017/06/23 10:58 KDMA 231058Z AUTO 00000KT 10SM FEW190 30/15 A2988 RMK AO2 SLP063 T02950145 CHINO RWY12 $
KCGZ - Casa Granda, Arizona, USA
Distance from station: NW 57mi, 92km
Updated: Fri, 23-Jun-2017 4:56am MST
Clear
Clear
 Wind from SSW
Wind: SSW 5 mph , 7 km/h
Temperature: 82°F , 28°C
Heat Index: 81°F , 27°C
Dew Point: 55°F , 13°C
Humidity: 40%
Barometer: 29.81 inHg , 1009.5 hPa
Clouds: Clear
Visibility: 10 miles , 16 km
2017/06/23 11:56 KCGZ 231156Z AUTO 20004KT 10SM CLR 28/13 A2981 RMK AO2 SLP072 7//// T02830133 10333 20272 53009 $
 
KALK - Pioneer Airfield, Arizona, USA
Distance from station: SE 65mi, 104km
Updated: Fri, 23-Jun-2017 4:56am MST
Clear
Clear
 Wind from W
Wind: W 7 mph , 11 km/h
Temperature: 75°F , 24°C
Dew Point: 52°F , 11°C
Humidity: 44%
Barometer: 30.07 inHg , 1018.3 hPa
Clouds: Clear
Visibility: 10 miles , 16 km
2017/06/23 11:56 KALK 231156Z AUTO 28006KT 10SM CLR 24/11 A3007 RMK AO2 SLP073 T02390106 10294 20233 53006 $
KOLS - Nogales, Arizona, USA
Distance from station: S 67mi, 108km
Updated: Fri, 23-Jun-2017 4:54am MST
Clear
Clear
 Wind from calm
Wind: Calm
Temperature: 75°F , 24°C
Dew Point: 55°F , 13°C
Humidity: 50%
Barometer: 29.99 inHg , 1015.6 hPa
Clouds: Clear
Visibility: 10 miles , 16 km
2017/06/23 11:54 KOLS 231154Z AUTO 00000KT 10SM CLR 24/13 A2999 RMK AO2 SLP070 T02390133 10289 20239 55001
 
KFHU - Fort Huachuca, Arizona, USA
Distance from station: SE 69mi, 110km
Updated: Fri, 23-Jun-2017 3:58am MST
Overcast
Overcast
 Wind from W
Wind: W 10 mph , 17 km/h
Temperature: 81°F , 27°C
Dew Point: 54°F , 12°C
Humidity: 39%
Barometer: 30.03 inHg , 1016.9 hPa
Clouds: Overcast
Visibility: 10 miles , 16 km
Cloud details: Overcast 18000 ft
2017/06/23 10:58 KFHU 231058Z AUTO 27009KT 10SM OVC180 27/12 A3003 RMK AO2 SLP075 T02710116
KIWA - Chandler/Mesa, Arizona, USA
Distance from station: NNW 73mi, 117km
Updated: Fri, 23-Jun-2017 4:50am MST
Clear
Clear
 Wind from ESE
Wind: ESE 6 mph , 9 km/h
Temperature: 82°F , 28°C
Heat Index: 82°F , 28°C
Dew Point: 57°F , 14°C
Humidity: 42%
Barometer: 29.80 inHg , 1009.1 hPa
Clouds: Clear
Visibility: 20 miles , 32 km
2017/06/23 11:50 KIWA 231150Z 12005KT 20SM SKC 28/14 A2980